createdAt,value
2022-10-18T00:00:50.142Z,12.40
2022-10-18T00:03:17.235Z,10.50
2022-10-18T00:05:44.315Z,11.73
2022-10-18T00:08:11.402Z,11.68
2022-10-18T00:10:38.435Z,11.18
2022-10-18T00:13:05.490Z,10.77
2022-10-18T00:15:32.531Z,10.30
2022-10-18T00:17:59.703Z,10.75
2022-10-18T00:20:26.884Z,10.60
2022-10-18T00:22:53.985Z,10.70
2022-10-18T00:25:21.036Z,10.48
2022-10-18T00:27:48.102Z,9.63
2022-10-18T00:30:15.188Z,10.80
2022-10-18T00:32:42.941Z,10.27
2022-10-18T00:35:10.079Z,10.00
2022-10-18T00:37:37.380Z,10.82
2022-10-18T00:40:04.994Z,11.57
2022-10-18T00:42:34.672Z,10.13
2022-10-18T00:45:06.505Z,10.38
2022-10-18T00:47:35.722Z,10.52
2022-10-18T00:50:03.581Z,9.70
2022-10-18T00:52:40.966Z,8.73
2022-10-18T00:55:08.387Z,9.10
2022-10-18T00:57:35.924Z,8.45
2022-10-18T01:00:07.403Z,8.80
2022-10-18T01:02:34.480Z,8.48
2022-10-18T01:05:01.548Z,8.15
2022-10-18T01:07:28.817Z,8.57
2022-10-18T01:10:03.902Z,8.48
2022-10-18T01:12:34.040Z,8.60
2022-10-18T01:15:06.874Z,8.88
2022-10-18T01:17:40.070Z,8.70
2022-10-18T01:20:44.100Z,9.32
2022-10-18T01:23:11.128Z,8.35
2022-10-18T01:25:46.533Z,9.43
2022-10-18T01:28:36.363Z,9.27
2022-10-18T01:31:20.514Z,8.60
2022-10-18T01:33:54.049Z,9.13
2022-10-18T01:36:24.020Z,8.90
2022-10-18T01:38:53.389Z,9.55
2022-10-18T01:41:21.207Z,9.18
2022-10-18T01:43:50.130Z,7.80
2022-10-18T01:46:20.041Z,8.55
2022-10-18T01:48:47.531Z,8.65
2022-10-18T01:51:14.630Z,8.55
2022-10-18T01:53:41.864Z,7.45
2022-10-18T01:56:29.186Z,8.25
2022-10-18T01:59:01.291Z,7.93
2022-10-18T02:01:31.273Z,8.23
2022-10-18T02:04:04.232Z,7.15
2022-10-18T02:09:11.399Z,7.70
2022-10-18T02:11:39.139Z,7.07
2022-10-18T02:14:11.790Z,6.95
2022-10-18T02:16:41.374Z,6.93
2022-10-18T02:19:14.729Z,7.53
2022-10-18T02:21:43.631Z,7.07
2022-10-18T02:24:11.882Z,7.45
2022-10-18T02:26:39.145Z,7.43
2022-10-18T02:29:06.367Z,7.18
2022-10-18T02:31:36.827Z,6.80
2022-10-18T02:34:03.851Z,6.47
2022-10-18T02:36:34.156Z,6.85
2022-10-18T02:39:03.962Z,6.80
2022-10-18T02:41:31.790Z,6.93
2022-10-18T02:43:58.846Z,7.15
2022-10-18T02:48:54.032Z,6.95
2022-10-18T02:51:21.095Z,6.82
2022-10-18T02:54:03.801Z,6.88
2022-10-18T02:56:30.859Z,6.47
2022-10-18T02:58:57.912Z,6.57
2022-10-18T03:01:25.134Z,6.88
2022-10-18T03:03:52.230Z,6.80
2022-10-18T03:06:19.406Z,6.88
2022-10-18T03:08:46.446Z,7.20
2022-10-18T03:11:13.520Z,6.72
2022-10-18T03:13:40.585Z,6.43
2022-10-18T03:16:07.700Z,6.53
2022-10-18T03:18:34.772Z,6.53
2022-10-18T03:21:05.603Z,6.38
2022-10-18T03:23:32.759Z,6.40
2022-10-18T03:25:59.852Z,6.55
2022-10-18T03:28:26.959Z,6.25
2022-10-18T03:30:54.045Z,6.43
2022-10-18T03:33:21.095Z,6.40
2022-10-18T03:35:48.142Z,6.30
2022-10-18T03:38:15.243Z,6.32
2022-10-18T03:40:42.280Z,6.82
2022-10-18T03:43:09.317Z,6.30
2022-10-18T03:45:36.360Z,6.55
2022-10-18T03:48:03.398Z,6.65
2022-10-18T03:50:30.455Z,6.35
2022-10-18T03:52:57.533Z,6.88
2022-10-18T03:55:24.611Z,6.78
2022-10-18T03:57:51.665Z,6.82
2022-10-18T04:00:18.730Z,7.80
2022-10-18T04:02:45.808Z,7.50
2022-10-18T04:05:14.028Z,6.72
2022-10-18T04:07:41.152Z,7.95
2022-10-18T04:10:08.562Z,8.40
2022-10-18T04:12:35.816Z,7.50
2022-10-18T04:15:03.221Z,7.70
2022-10-18T04:17:30.566Z,7.85
2022-10-18T04:19:57.809Z,6.32
2022-10-18T04:22:24.879Z,6.93
2022-10-18T04:24:53.278Z,7.47
2022-10-18T04:27:20.498Z,7.20
2022-10-18T04:29:47.561Z,7.65
2022-10-18T04:32:14.619Z,6.78
2022-10-18T04:37:13.780Z,7.22
2022-10-18T04:39:40.891Z,6.80
2022-10-18T04:42:07.929Z,7.05
2022-10-18T04:44:35.035Z,7.22
2022-10-18T04:47:02.062Z,7.22
2022-10-18T04:49:29.086Z,7.20
2022-10-18T04:51:56.173Z,7.47
2022-10-18T04:54:25.202Z,6.60
2022-10-18T04:56:54.945Z,6.32
2022-10-18T04:59:22.009Z,6.68
2022-10-18T05:01:49.113Z,7.50
2022-10-18T05:04:16.305Z,6.53
2022-10-18T05:06:43.326Z,6.03
2022-10-18T05:09:10.503Z,6.13
2022-10-18T05:11:37.534Z,5.70
2022-10-18T05:14:04.848Z,6.32
2022-10-18T05:16:32.987Z,6.05
2022-10-18T05:19:00.051Z,6.20
2022-10-18T05:21:27.086Z,5.90
2022-10-18T05:23:57.076Z,6.28
2022-10-18T05:26:24.148Z,7.10
2022-10-18T05:28:51.331Z,7.78
2022-10-18T05:31:18.698Z,8.38
2022-10-18T05:33:45.749Z,7.70
2022-10-18T05:36:12.875Z,7.80
2022-10-18T05:38:43.923Z,7.63
2022-10-18T05:41:11.103Z,8.27
2022-10-18T05:43:38.352Z,6.95
2022-10-18T05:46:11.879Z,7.25
2022-10-18T05:48:40.950Z,6.50
2022-10-18T05:51:07.983Z,6.65
2022-10-18T05:53:37.522Z,6.47
2022-10-18T05:56:05.535Z,6.78
2022-10-18T05:58:32.663Z,6.97
2022-10-18T06:01:00.791Z,6.45
2022-10-18T06:03:28.313Z,6.72
2022-10-18T06:06:00.175Z,6.50
2022-10-18T06:08:27.572Z,6.07
2022-10-18T06:10:54.802Z,5.78
2022-10-18T06:13:21.906Z,5.80
2022-10-18T06:15:49.203Z,5.45
2022-10-18T06:18:16.396Z,5.95
2022-10-18T06:20:43.434Z,5.10
2022-10-18T06:23:10.550Z,5.45
2022-10-18T06:25:37.619Z,5.40
2022-10-18T06:28:07.803Z,5.30
2022-10-18T06:30:37.302Z,5.78
2022-10-18T06:33:04.360Z,4.72
2022-10-18T06:35:31.441Z,4.43
2022-10-18T06:37:58.482Z,4.05
2022-10-18T06:40:25.530Z,4.43
2022-10-18T06:43:00.121Z,4.38
2022-10-18T06:45:27.730Z,4.60
2022-10-18T06:47:54.789Z,3.70
2022-10-18T06:50:21.827Z,3.95
2022-10-18T06:52:51.046Z,3.53
2022-10-18T06:55:18.071Z,3.90
2022-10-18T06:57:45.107Z,3.85
2022-10-18T07:00:12.515Z,3.80
2022-10-18T07:02:41.186Z,4.25
2022-10-18T07:05:09.285Z,4.00
2022-10-18T07:07:36.561Z,4.00
2022-10-18T07:10:04.204Z,3.90
2022-10-18T07:12:31.648Z,4.10
2022-10-18T07:14:58.769Z,3.53
2022-10-18T07:17:25.992Z,4.38
2022-10-18T07:19:53.054Z,4.07
2022-10-18T07:22:20.105Z,4.43
2022-10-18T07:24:47.143Z,4.28
2022-10-18T07:27:14.189Z,4.15
2022-10-18T07:29:41.238Z,4.57
2022-10-18T07:32:08.356Z,4.05
2022-10-18T07:34:35.403Z,4.90
2022-10-18T07:37:02.870Z,4.95
2022-10-18T07:39:29.904Z,4.70
2022-10-18T07:41:57.002Z,4.10
2022-10-18T07:44:24.056Z,4.97
2022-10-18T07:46:51.118Z,4.43
2022-10-18T07:49:18.252Z,4.90
2022-10-18T07:51:45.312Z,4.50
2022-10-18T07:54:12.375Z,4.60
2022-10-18T07:56:39.403Z,4.25
2022-10-18T07:59:06.438Z,4.50
2022-10-18T08:01:34.908Z,4.45
2022-10-18T08:04:06.992Z,4.13
2022-10-18T08:06:35.006Z,4.25
2022-10-18T08:09:02.118Z,4.13
2022-10-18T08:11:29.223Z,4.05
2022-10-18T08:13:56.275Z,4.20
2022-10-18T08:16:24.512Z,4.30
2022-10-18T08:18:51.624Z,4.20
2022-10-18T08:21:19.184Z,3.70
2022-10-18T08:23:46.275Z,3.58
2022-10-18T08:26:14.590Z,3.90
2022-10-18T08:28:46.178Z,3.42
2022-10-18T08:31:21.449Z,3.30
2022-10-18T08:33:48.789Z,3.55
2022-10-18T08:36:16.602Z,3.40
2022-10-18T08:38:44.054Z,3.35
2022-10-18T08:41:43.471Z,3.45
2022-10-18T08:44:23.975Z,3.60
2022-10-18T08:46:52.525Z,3.30
2022-10-18T08:49:32.562Z,3.00
2022-10-18T08:51:59.880Z,3.28
2022-10-18T08:54:33.160Z,3.00
2022-10-18T08:57:02.046Z,2.88
2022-10-18T08:59:35.188Z,2.65
2022-10-18T09:02:06.253Z,2.65
2022-10-18T09:04:39.111Z,2.67
2022-10-18T09:07:06.133Z,2.42
2022-10-18T09:09:41.172Z,1.98
2022-10-18T09:12:08.249Z,2.03
2022-10-18T09:14:35.276Z,1.70
2022-10-18T09:17:17.535Z,1.73
2022-10-18T09:19:55.005Z,2.45
2022-10-18T09:22:38.928Z,1.30
2022-10-18T09:25:19.032Z,1.10
2022-10-18T09:28:26.948Z,1.30
2022-10-18T09:31:26.615Z,1.40
2022-10-18T09:33:56.468Z,1.65
2022-10-18T09:36:24.895Z,1.30
2022-10-18T09:38:56.147Z,1.38
2022-10-18T09:41:40.884Z,1.27
2022-10-18T09:44:22.630Z,1.70
2022-10-18T09:46:51.376Z,1.23
2022-10-18T09:49:22.600Z,1.20
2022-10-18T09:51:50.382Z,1.30
2022-10-18T09:54:35.775Z,1.23
2022-10-18T09:57:09.680Z,1.15
2022-10-18T09:59:43.429Z,1.05
2022-10-18T10:02:14.848Z,1.17
2022-10-18T10:04:41.991Z,1.33
2022-10-18T10:07:12.338Z,0.98
2022-10-18T10:09:46.213Z,1.13
2022-10-18T10:12:48.839Z,1.10
2022-10-18T10:15:22.609Z,1.00
2022-10-18T10:18:00.681Z,0.93
2022-10-18T10:20:44.140Z,1.00
2022-10-18T10:23:22.263Z,0.90
2022-10-18T10:25:53.077Z,1.20
2022-10-18T10:28:24.685Z,1.20
2022-10-18T10:30:51.879Z,0.90
2022-10-18T10:33:38.398Z,0.95
2022-10-18T10:36:07.076Z,1.08
2022-10-18T10:38:34.276Z,0.82
2022-10-18T10:41:01.431Z,0.88
2022-10-18T10:43:43.776Z,0.75
2022-10-18T10:46:12.587Z,0.70
2022-10-18T10:48:47.736Z,1.05
2022-10-18T10:51:16.440Z,0.77
2022-10-18T10:53:58.768Z,1.30
2022-10-18T10:57:05.270Z,0.73
2022-10-18T10:59:42.651Z,0.85
2022-10-18T11:02:18.623Z,1.35
2022-10-18T11:04:46.733Z,1.40
2022-10-18T11:07:16.544Z,1.48
2022-10-18T11:09:51.275Z,1.10
2022-10-18T11:12:21.026Z,0.73
2022-10-18T11:14:51.807Z,1.15
2022-10-18T11:17:23.104Z,1.00
2022-10-18T11:19:50.116Z,0.77
2022-10-18T11:22:21.978Z,0.82
2022-10-18T11:24:49.078Z,1.30
2022-10-18T11:27:24.243Z,1.00
2022-10-18T11:30:12.331Z,0.95
2022-10-18T11:32:46.803Z,0.90
2022-10-18T11:35:24.786Z,0.75
2022-10-18T11:37:58.196Z,0.70
2022-10-18T11:40:33.488Z,0.80
2022-10-18T11:43:12.709Z,1.00
2022-10-18T11:45:39.792Z,0.90
2022-10-18T11:48:22.836Z,0.77
2022-10-18T11:51:08.378Z,1.02
2022-10-18T11:56:21.813Z,0.93
2022-10-18T11:58:57.920Z,0.90
2022-10-18T12:01:29.396Z,0.60
2022-10-18T12:03:59.259Z,0.70
2022-10-18T12:06:30.573Z,0.95
2022-10-18T12:09:02.576Z,0.98
2022-10-18T12:11:34.223Z,1.20
2022-10-18T12:14:04.841Z,0.95
2022-10-18T12:16:50.350Z,1.20
2022-10-18T12:19:23.710Z,0.82
2022-10-18T12:21:54.523Z,0.93
2022-10-18T12:24:23.247Z,1.13
2022-10-18T12:26:54.074Z,0.93
2022-10-18T12:29:26.815Z,0.90
2022-10-18T12:31:58.387Z,0.95
2022-10-18T12:34:25.415Z,0.90
2022-10-18T12:37:15.348Z,0.70
2022-10-18T12:40:09.052Z,0.80
2022-10-18T12:42:42.231Z,0.88
2022-10-18T12:45:18.172Z,0.47
2022-10-18T12:47:45.266Z,0.70
2022-10-18T12:50:27.674Z,0.80
2022-10-18T12:53:03.627Z,0.90
2022-10-18T12:55:34.759Z,0.80
2022-10-18T12:58:03.302Z,0.80
2022-10-18T13:00:30.306Z,0.70
2022-10-18T13:03:18.197Z,0.80
2022-10-18T13:05:53.443Z,0.77
2022-10-18T13:08:30.276Z,0.90
2022-10-18T13:11:09.945Z,0.63
2022-10-18T13:13:40.841Z,0.75
2022-10-18T13:16:13.024Z,0.50
2022-10-18T13:19:12.883Z,1.00
2022-10-18T13:22:10.584Z,1.02
2022-10-18T13:24:44.999Z,0.70
2022-10-18T13:27:37.126Z,0.88
2022-10-18T13:30:19.121Z,0.88
2022-10-18T13:33:09.735Z,0.65
2022-10-18T13:35:42.761Z,0.65
2022-10-18T13:38:33.266Z,0.90
2022-10-18T13:41:04.722Z,0.90
2022-10-18T13:43:53.379Z,0.80
2022-10-18T13:46:21.387Z,0.82
2022-10-18T13:48:49.984Z,0.90
2022-10-18T13:51:26.654Z,0.80
2022-10-18T13:54:05.981Z,1.13
2022-10-18T13:56:39.019Z,0.75
2022-10-18T13:59:14.291Z,0.85
2022-10-18T14:01:52.976Z,0.68
2022-10-18T14:04:35.071Z,0.70
2022-10-18T14:07:04.190Z,0.80
2022-10-18T14:09:48.912Z,0.52
2022-10-18T14:12:43.482Z,0.85
2022-10-18T14:15:17.603Z,0.80
2022-10-18T14:17:47.489Z,1.17
2022-10-18T14:20:17.929Z,1.10
2022-10-18T14:23:17.746Z,1.20
2022-10-18T14:25:45.162Z,1.00
2022-10-18T14:28:31.504Z,1.20
2022-10-18T14:31:16.715Z,1.30
2022-10-18T14:33:46.707Z,1.05
2022-10-18T14:36:15.617Z,1.40
2022-10-18T14:38:54.655Z,1.98
2022-10-18T14:41:27.732Z,0.90
2022-10-18T14:44:18.405Z,0.82
2022-10-18T14:46:46.759Z,1.00
2022-10-18T14:49:15.460Z,0.80
2022-10-18T14:51:44.949Z,1.30
2022-10-18T14:54:17.395Z,1.10
2022-10-18T14:56:44.718Z,1.17
2022-10-18T14:59:21.071Z,0.95
2022-10-18T15:02:14.059Z,1.00
2022-10-18T15:04:43.995Z,1.08
2022-10-18T15:07:16.281Z,1.40
2022-10-18T15:09:44.495Z,0.90
2022-10-18T15:12:14.643Z,1.08
2022-10-18T15:14:43.191Z,0.80
2022-10-18T15:17:22.461Z,1.00
2022-10-18T15:22:34.212Z,1.02
2022-10-18T15:25:11.435Z,1.00
2022-10-18T15:27:39.702Z,1.05
2022-10-18T15:30:08.547Z,1.85
2022-10-18T15:32:37.651Z,1.10
2022-10-18T15:35:09.179Z,1.15
2022-10-18T15:37:38.698Z,0.85
2022-10-18T15:40:24.062Z,0.82
2022-10-18T15:42:52.126Z,1.08
2022-10-18T15:45:25.259Z,0.88
2022-10-18T15:48:02.082Z,1.10
2022-10-18T15:50:40.993Z,1.20
2022-10-18T15:53:31.846Z,1.23
2022-10-18T15:56:08.055Z,1.20
2022-10-18T15:58:40.107Z,1.00
2022-10-18T16:01:18.586Z,1.05
2022-10-18T16:03:47.002Z,1.10
2022-10-18T16:06:18.041Z,1.70
2022-10-18T16:08:48.483Z,1.20
2022-10-18T16:11:16.831Z,1.33
2022-10-18T16:13:44.567Z,1.88
2022-10-18T16:16:15.504Z,1.17
2022-10-18T16:18:42.551Z,1.70
2022-10-18T16:21:38.970Z,1.42
2022-10-18T16:24:06.264Z,1.10
2022-10-18T16:26:33.388Z,1.30
2022-10-18T16:29:00.790Z,1.23
2022-10-18T16:31:30.798Z,1.60
2022-10-18T16:33:57.966Z,1.85
2022-10-18T16:36:32.690Z,1.20
2022-10-18T16:39:01.717Z,1.13
2022-10-18T16:41:28.882Z,1.50
2022-10-18T16:43:56.079Z,1.50
2022-10-18T16:46:27.191Z,1.40
2022-10-18T16:48:54.427Z,1.30
2022-10-18T16:51:21.734Z,1.67
2022-10-18T16:53:48.837Z,1.65
2022-10-18T16:56:20.415Z,2.03
2022-10-18T16:58:47.657Z,1.73
2022-10-18T17:01:16.339Z,1.45
2022-10-18T17:03:43.705Z,1.75
2022-10-18T17:06:21.192Z,1.50
2022-10-18T17:08:48.390Z,1.50
2022-10-18T17:11:16.548Z,1.70
2022-10-18T17:13:43.866Z,1.60
2022-10-18T17:16:21.973Z,1.65
2022-10-18T17:18:49.139Z,1.55
2022-10-18T17:21:16.202Z,1.52
2022-10-18T17:23:43.342Z,1.83
2022-10-18T17:26:27.786Z,1.80
2022-10-18T17:28:56.073Z,1.73
2022-10-18T17:31:23.327Z,2.28
2022-10-18T17:33:50.427Z,2.53
2022-10-18T17:36:17.480Z,2.30
2022-10-18T17:38:46.669Z,2.72
2022-10-18T17:41:13.707Z,2.83
2022-10-18T17:43:41.270Z,2.70
2022-10-18T17:46:08.392Z,3.40
2022-10-18T17:48:35.434Z,4.20
2022-10-18T17:51:07.703Z,3.40
2022-10-18T17:53:34.840Z,3.50
2022-10-18T17:56:02.981Z,3.10
2022-10-18T17:58:30.506Z,3.17
2022-10-18T18:00:57.665Z,3.17
2022-10-18T18:03:24.741Z,3.60
2022-10-18T18:05:51.785Z,4.38
2022-10-18T18:08:18.932Z,4.40
2022-10-18T18:10:46.095Z,4.63
2022-10-18T18:13:16.256Z,4.93
2022-10-18T18:15:46.044Z,6.18
2022-10-18T18:18:13.110Z,5.70
2022-10-18T18:20:40.145Z,5.38
2022-10-18T18:23:07.185Z,4.90
2022-10-18T18:25:34.222Z,5.18
2022-10-18T18:28:06.595Z,5.10
2022-10-18T18:30:34.671Z,5.68
2022-10-18T18:33:01.845Z,5.63
2022-10-18T18:35:28.915Z,5.20
2022-10-18T18:37:55.971Z,5.15
2022-10-18T18:40:23.785Z,5.20
2022-10-18T18:43:07.055Z,5.40
2022-10-18T18:45:38.455Z,5.60
2022-10-18T18:48:05.628Z,6.22
2022-10-18T18:50:35.038Z,6.07
2022-10-18T18:53:02.094Z,6.70
2022-10-18T18:55:29.157Z,6.95
2022-10-18T18:57:56.202Z,7.07
2022-10-18T19:00:23.287Z,6.70
2022-10-18T19:02:50.329Z,7.07
2022-10-18T19:05:17.550Z,7.47
2022-10-18T19:07:44.664Z,6.50
2022-10-18T19:10:11.703Z,6.30
2022-10-18T19:12:38.882Z,5.75
2022-10-18T19:15:06.142Z,5.43
2022-10-18T19:17:33.476Z,5.57
2022-10-18T19:20:01.098Z,5.05
2022-10-18T19:22:28.209Z,5.68
2022-10-18T19:24:55.282Z,5.13
2022-10-18T19:27:22.424Z,5.70
2022-10-18T19:29:49.510Z,5.53
2022-10-18T19:32:18.564Z,6.30
2022-10-18T19:34:45.658Z,5.63
2022-10-18T19:37:13.213Z,5.78
2022-10-18T19:39:40.317Z,6.90
2022-10-18T19:42:19.229Z,6.88
2022-10-18T19:44:49.851Z,6.60
2022-10-18T19:47:16.921Z,6.63
2022-10-18T19:49:44.171Z,7.15
2022-10-18T19:52:12.285Z,7.07
2022-10-18T19:54:39.577Z,7.47
2022-10-18T19:57:06.898Z,7.10
2022-10-18T19:59:35.825Z,7.13
2022-10-18T20:02:04.586Z,7.10
2022-10-18T20:04:34.475Z,7.45
2022-10-18T20:07:02.638Z,7.95
2022-10-18T20:09:29.980Z,8.57
2022-10-18T20:11:57.038Z,9.18
2022-10-18T20:14:24.172Z,8.73
2022-10-18T20:16:51.315Z,8.40
2022-10-18T20:19:18.407Z,7.63
2022-10-18T20:21:45.551Z,7.70
2022-10-18T20:24:12.732Z,7.25
2022-10-18T20:26:39.902Z,7.63
2022-10-18T20:29:07.894Z,8.10
2022-10-18T20:31:38.218Z,7.68
2022-10-18T20:34:06.811Z,7.32
2022-10-18T20:36:34.436Z,7.03
2022-10-18T20:39:01.811Z,7.78
2022-10-18T20:41:30.499Z,7.88
2022-10-18T20:44:01.812Z,7.30
2022-10-18T20:46:33.018Z,8.48
2022-10-18T20:49:00.164Z,8.55
2022-10-18T20:51:27.477Z,7.70
2022-10-18T20:53:55.006Z,7.85
2022-10-18T20:56:23.620Z,7.57
2022-10-18T20:58:51.921Z,6.97
2022-10-18T21:01:26.117Z,7.78
2022-10-18T21:03:54.229Z,7.35
2022-10-18T21:06:22.743Z,6.97
2022-10-18T21:08:56.803Z,7.88
2022-10-18T21:11:24.319Z,7.55
2022-10-18T21:13:55.503Z,7.90
2022-10-18T21:16:22.628Z,8.48
2022-10-18T21:18:49.982Z,7.53
2022-10-18T21:21:18.300Z,8.32
2022-10-18T21:23:45.890Z,7.75
2022-10-18T21:26:16.573Z,7.50
2022-10-18T21:28:43.846Z,7.90
2022-10-18T21:31:15.993Z,8.07
2022-10-18T21:33:43.403Z,7.60
2022-10-18T21:36:10.679Z,7.70
2022-10-18T21:38:38.052Z,7.53
2022-10-18T21:41:09.691Z,7.32
2022-10-18T21:43:37.464Z,7.68
2022-10-18T21:46:04.539Z,7.68
2022-10-18T21:48:31.578Z,8.38
2022-10-18T21:51:02.798Z,6.93
2022-10-18T21:53:29.850Z,7.63
2022-10-18T21:55:56.934Z,7.10
2022-10-18T21:58:23.972Z,6.45
2022-10-18T22:00:52.724Z,7.15
2022-10-18T22:03:24.738Z,7.45
2022-10-18T22:06:01.979Z,7.28
2022-10-18T22:08:29.727Z,7.07
2022-10-18T22:11:00.492Z,7.53
2022-10-18T22:13:28.495Z,6.95
2022-10-18T22:15:55.697Z,7.53
2022-10-18T22:18:22.758Z,6.90
2022-10-18T22:20:56.229Z,7.38
2022-10-18T22:23:23.339Z,7.50
2022-10-18T22:25:50.437Z,6.25
2022-10-18T22:28:17.563Z,6.65
2022-10-18T22:30:44.667Z,6.68
2022-10-18T22:33:11.690Z,6.70
2022-10-18T22:35:38.748Z,6.85
2022-10-18T22:38:05.786Z,6.43
2022-10-18T22:40:32.995Z,7.28
2022-10-18T22:43:00.021Z,6.82
2022-10-18T22:45:27.084Z,6.60
2022-10-18T22:47:54.185Z,6.43
2022-10-18T22:50:21.279Z,6.30
2022-10-18T22:52:49.694Z,6.20
2022-10-18T22:55:19.674Z,6.60
2022-10-18T22:57:46.715Z,6.47
2022-10-18T23:00:13.982Z,6.03
2022-10-18T23:02:41.066Z,6.53
2022-10-18T23:05:08.203Z,5.93
2022-10-18T23:07:35.226Z,6.00
2022-10-18T23:10:02.361Z,5.40
2022-10-18T23:12:29.416Z,5.22
2022-10-18T23:14:56.455Z,5.63
2022-10-18T23:17:23.489Z,5.97
2022-10-18T23:19:50.522Z,6.00
2022-10-18T23:22:21.098Z,5.55
2022-10-18T23:24:48.184Z,5.50
2022-10-18T23:27:15.267Z,6.00
2022-10-18T23:29:42.302Z,5.80
2022-10-18T23:32:09.401Z,5.43
2022-10-18T23:34:36.435Z,5.78
2022-10-18T23:37:03.499Z,5.45
2022-10-18T23:39:30.552Z,5.20
2022-10-18T23:41:57.592Z,5.95
2022-10-18T23:44:24.631Z,5.18
2022-10-18T23:46:51.655Z,5.78
2022-10-18T23:49:18.701Z,5.28
2022-10-18T23:51:45.736Z,5.35
2022-10-18T23:54:12.816Z,5.43
2022-10-18T23:56:39.834Z,4.85
2022-10-18T23:59:06.862Z,4.78
